sensor_id;sensor_type;location;lat;lon;timestamp;P1;durP1;ratioP1;P2;durP2;ratioP2
51792;SDS011;37850;53.178;6.376;2022-07-23T00:01:20;8.00;;;4.05;;
51792;SDS011;37850;53.178;6.376;2022-07-23T00:03:46;9.48;;;4.57;;
51792;SDS011;37850;53.178;6.376;2022-07-23T00:06:12;9.32;;;4.55;;
51792;SDS011;37850;53.178;6.376;2022-07-23T00:08:38;9.60;;;4.50;;
51792;SDS011;37850;53.178;6.376;2022-07-23T00:11:04;8.35;;;4.05;;
51792;SDS011;37850;53.178;6.376;2022-07-23T00:13:29;9.70;;;3.97;;
51792;SDS011;37850;53.178;6.376;2022-07-23T00:15:55;8.02;;;4.30;;
51792;SDS011;37850;53.178;6.376;2022-07-23T00:18:21;10.40;;;4.57;;
51792;SDS011;37850;53.178;6.376;2022-07-23T00:20:47;10.07;;;3.95;;
51792;SDS011;37850;53.178;6.376;2022-07-23T00:23:13;6.32;;;3.63;;
51792;SDS011;37850;53.178;6.376;2022-07-23T00:25:40;9.20;;;4.13;;
51792;SDS011;37850;53.178;6.376;2022-07-23T00:28:06;8.55;;;4.25;;
51792;SDS011;37850;53.178;6.376;2022-07-23T00:30:32;8.82;;;4.10;;
51792;SDS011;37850;53.178;6.376;2022-07-23T00:32:58;8.02;;;4.28;;
51792;SDS011;37850;53.178;6.376;2022-07-23T00:35:30;8.25;;;4.10;;
51792;SDS011;37850;53.178;6.376;2022-07-23T00:37:58;10.30;;;4.28;;
51792;SDS011;37850;53.178;6.376;2022-07-23T00:40:24;8.88;;;4.03;;
51792;SDS011;37850;53.178;6.376;2022-07-23T00:42:51;8.98;;;4.65;;
51792;SDS011;37850;53.178;6.376;2022-07-23T00:45:17;7.90;;;4.03;;
51792;SDS011;37850;53.178;6.376;2022-07-23T00:47:43;8.13;;;4.57;;
51792;SDS011;37850;53.178;6.376;2022-07-23T00:50:09;9.30;;;4.63;;
51792;SDS011;37850;53.178;6.376;2022-07-23T00:52:36;8.55;;;4.07;;
51792;SDS011;37850;53.178;6.376;2022-07-23T00:55:03;8.10;;;3.70;;
51792;SDS011;37850;53.178;6.376;2022-07-23T00:57:30;11.95;;;4.57;;
51792;SDS011;37850;53.178;6.376;2022-07-23T00:59:56;8.63;;;4.43;;
51792;SDS011;37850;53.178;6.376;2022-07-23T01:02:23;7.78;;;4.20;;
51792;SDS011;37850;53.178;6.376;2022-07-23T01:04:53;8.57;;;4.15;;
51792;SDS011;37850;53.178;6.376;2022-07-23T01:07:18;6.80;;;4.00;;
51792;SDS011;37850;53.178;6.376;2022-07-23T01:09:45;7.28;;;3.90;;
51792;SDS011;37850;53.178;6.376;2022-07-23T01:12:11;7.35;;;4.03;;
51792;SDS011;37850;53.178;6.376;2022-07-23T01:14:37;7.20;;;3.90;;
51792;SDS011;37850;53.178;6.376;2022-07-23T01:17:03;8.65;;;4.15;;
51792;SDS011;37850;53.178;6.376;2022-07-23T01:19:29;8.90;;;3.70;;
51792;SDS011;37850;53.178;6.376;2022-07-23T01:21:55;10.98;;;4.30;;
51792;SDS011;37850;53.178;6.376;2022-07-23T01:24:23;8.52;;;4.03;;
51792;SDS011;37850;53.178;6.376;2022-07-23T01:26:49;8.63;;;3.95;;
51792;SDS011;37850;53.178;6.376;2022-07-23T01:29:15;8.43;;;3.95;;
51792;SDS011;37850;53.178;6.376;2022-07-23T01:31:42;8.70;;;3.90;;
51792;SDS011;37850;53.178;6.376;2022-07-23T01:34:08;7.65;;;3.85;;
51792;SDS011;37850;53.178;6.376;2022-07-23T01:36:35;9.50;;;4.65;;
51792;SDS011;37850;53.178;6.376;2022-07-23T01:39:02;7.38;;;3.58;;
51792;SDS011;37850;53.178;6.376;2022-07-23T01:41:28;8.18;;;4.20;;
51792;SDS011;37850;53.178;6.376;2022-07-23T01:43:54;8.18;;;3.72;;
51792;SDS011;37850;53.178;6.376;2022-07-23T01:46:20;10.48;;;4.20;;
51792;SDS011;37850;53.178;6.376;2022-07-23T01:48:46;9.25;;;4.20;;
51792;SDS011;37850;53.178;6.376;2022-07-23T01:51:11;7.05;;;3.88;;
51792;SDS011;37850;53.178;6.376;2022-07-23T01:53:37;8.55;;;4.13;;
51792;SDS011;37850;53.178;6.376;2022-07-23T01:56:03;9.75;;;4.90;;
51792;SDS011;37850;53.178;6.376;2022-07-23T01:58:29;10.63;;;4.75;;
51792;SDS011;37850;53.178;6.376;2022-07-23T02:00:55;10.30;;;5.90;;
51792;SDS011;37850;53.178;6.376;2022-07-23T02:03:21;10.02;;;5.05;;
51792;SDS011;37850;53.178;6.376;2022-07-23T02:05:47;13.70;;;5.40;;
51792;SDS011;37850;53.178;6.376;2022-07-23T02:08:13;8.35;;;5.07;;
51792;SDS011;37850;53.178;6.376;2022-07-23T02:10:39;12.40;;;5.88;;
51792;SDS011;37850;53.178;6.376;2022-07-23T02:13:05;9.80;;;5.45;;
51792;SDS011;37850;53.178;6.376;2022-07-23T02:15:31;10.88;;;5.93;;
51792;SDS011;37850;53.178;6.376;2022-07-23T02:17:57;11.13;;;5.70;;
51792;SDS011;37850;53.178;6.376;2022-07-23T02:20:23;10.48;;;5.75;;
51792;SDS011;37850;53.178;6.376;2022-07-23T02:22:49;10.10;;;5.75;;
51792;SDS011;37850;53.178;6.376;2022-07-23T02:25:15;8.13;;;5.30;;
51792;SDS011;37850;53.178;6.376;2022-07-23T02:27:41;11.38;;;6.07;;
51792;SDS011;37850;53.178;6.376;2022-07-23T02:30:07;11.60;;;5.88;;
51792;SDS011;37850;53.178;6.376;2022-07-23T02:32:34;10.07;;;6.07;;
51792;SDS011;37850;53.178;6.376;2022-07-23T02:35:00;11.70;;;6.85;;
51792;SDS011;37850;53.178;6.376;2022-07-23T02:37:26;9.65;;;5.57;;
51792;SDS011;37850;53.178;6.376;2022-07-23T02:39:52;9.10;;;5.47;;
51792;SDS011;37850;53.178;6.376;2022-07-23T02:42:18;9.55;;;5.63;;
51792;SDS011;37850;53.178;6.376;2022-07-23T02:44:44;10.15;;;5.68;;
51792;SDS011;37850;53.178;6.376;2022-07-23T02:47:10;10.88;;;5.85;;
51792;SDS011;37850;53.178;6.376;2022-07-23T02:49:35;8.48;;;5.50;;
51792;SDS011;37850;53.178;6.376;2022-07-23T02:52:01;10.57;;;6.00;;
51792;SDS011;37850;53.178;6.376;2022-07-23T02:54:27;10.45;;;6.00;;
51792;SDS011;37850;53.178;6.376;2022-07-23T02:56:53;10.80;;;5.75;;
51792;SDS011;37850;53.178;6.376;2022-07-23T02:59:19;9.48;;;5.80;;
51792;SDS011;37850;53.178;6.376;2022-07-23T03:01:44;11.25;;;6.72;;
51792;SDS011;37850;53.178;6.376;2022-07-23T03:04:10;8.43;;;5.70;;
51792;SDS011;37850;53.178;6.376;2022-07-23T03:06:37;8.55;;;5.47;;
51792;SDS011;37850;53.178;6.376;2022-07-23T03:09:03;9.13;;;5.40;;
51792;SDS011;37850;53.178;6.376;2022-07-23T03:11:29;8.85;;;5.40;;
51792;SDS011;37850;53.178;6.376;2022-07-23T03:13:55;8.75;;;5.90;;
51792;SDS011;37850;53.178;6.376;2022-07-23T03:16:21;10.18;;;5.55;;
51792;SDS011;37850;53.178;6.376;2022-07-23T03:18:47;9.35;;;5.82;;
51792;SDS011;37850;53.178;6.376;2022-07-23T03:21:12;9.90;;;5.28;;
51792;SDS011;37850;53.178;6.376;2022-07-23T03:23:38;14.65;;;5.30;;
51792;SDS011;37850;53.178;6.376;2022-07-23T03:26:04;9.90;;;5.45;;
51792;SDS011;37850;53.178;6.376;2022-07-23T03:28:30;9.63;;;5.70;;
51792;SDS011;37850;53.178;6.376;2022-07-23T03:30:56;11.80;;;5.82;;
51792;SDS011;37850;53.178;6.376;2022-07-23T03:33:22;14.80;;;6.20;;
51792;SDS011;37850;53.178;6.376;2022-07-23T03:35:48;9.40;;;5.78;;
51792;SDS011;37850;53.178;6.376;2022-07-23T03:38:14;7.82;;;4.82;;
51792;SDS011;37850;53.178;6.376;2022-07-23T03:40:41;11.15;;;5.40;;
51792;SDS011;37850;53.178;6.376;2022-07-23T03:43:06;9.55;;;5.68;;
51792;SDS011;37850;53.178;6.376;2022-07-23T03:45:33;8.40;;;5.50;;
51792;SDS011;37850;53.178;6.376;2022-07-23T03:47:58;8.88;;;5.40;;
51792;SDS011;37850;53.178;6.376;2022-07-23T03:50:24;10.70;;;5.05;;
51792;SDS011;37850;53.178;6.376;2022-07-23T03:52:51;11.60;;;5.97;;
51792;SDS011;37850;53.178;6.376;2022-07-23T03:55:17;9.25;;;5.35;;
51792;SDS011;37850;53.178;6.376;2022-07-23T03:57:43;11.00;;;5.35;;
51792;SDS011;37850;53.178;6.376;2022-07-23T04:00:09;9.27;;;4.93;;
51792;SDS011;37850;53.178;6.376;2022-07-23T04:02:35;11.13;;;5.18;;
51792;SDS011;37850;53.178;6.376;2022-07-23T04:05:02;9.77;;;5.13;;
51792;SDS011;37850;53.178;6.376;2022-07-23T04:07:29;12.90;;;6.20;;
51792;SDS011;37850;53.178;6.376;2022-07-23T04:09:55;10.55;;;5.55;;
51792;SDS011;37850;53.178;6.376;2022-07-23T04:12:21;8.95;;;5.28;;
51792;SDS011;37850;53.178;6.376;2022-07-23T04:14:47;9.93;;;5.63;;
51792;SDS011;37850;53.178;6.376;2022-07-23T04:17:12;10.65;;;5.15;;
51792;SDS011;37850;53.178;6.376;2022-07-23T04:19:38;10.02;;;5.50;;
51792;SDS011;37850;53.178;6.376;2022-07-23T04:22:09;8.73;;;5.20;;
51792;SDS011;37850;53.178;6.376;2022-07-23T04:24:38;8.93;;;5.35;;
51792;SDS011;37850;53.178;6.376;2022-07-23T04:27:03;10.10;;;5.20;;
51792;SDS011;37850;53.178;6.376;2022-07-23T04:29:30;11.32;;;5.03;;
51792;SDS011;37850;53.178;6.376;2022-07-23T04:31:55;12.98;;;5.20;;
51792;SDS011;37850;53.178;6.376;2022-07-23T04:34:21;9.18;;;5.57;;
51792;SDS011;37850;53.178;6.376;2022-07-23T04:36:47;13.52;;;5.25;;
51792;SDS011;37850;53.178;6.376;2022-07-23T04:39:13;13.75;;;5.25;;
51792;SDS011;37850;53.178;6.376;2022-07-23T04:41:39;9.63;;;5.38;;
51792;SDS011;37850;53.178;6.376;2022-07-23T04:44:05;11.73;;;5.18;;
51792;SDS011;37850;53.178;6.376;2022-07-23T04:46:31;8.50;;;4.93;;
51792;SDS011;37850;53.178;6.376;2022-07-23T04:48:56;9.38;;;5.45;;
51792;SDS011;37850;53.178;6.376;2022-07-23T04:51:22;11.40;;;5.20;;
51792;SDS011;37850;53.178;6.376;2022-07-23T04:53:48;9.38;;;4.53;;
51792;SDS011;37850;53.178;6.376;2022-07-23T04:56:14;12.55;;;5.10;;
51792;SDS011;37850;53.178;6.376;2022-07-23T04:58:40;10.68;;;4.75;;
51792;SDS011;37850;53.178;6.376;2022-07-23T05:01:06;9.10;;;4.47;;
51792;SDS011;37850;53.178;6.376;2022-07-23T05:03:32;9.02;;;4.68;;
51792;SDS011;37850;53.178;6.376;2022-07-23T05:05:58;11.63;;;4.53;;
51792;SDS011;37850;53.178;6.376;2022-07-23T05:08:23;7.32;;;4.13;;
51792;SDS011;37850;53.178;6.376;2022-07-23T05:10:49;9.30;;;3.95;;
51792;SDS011;37850;53.178;6.376;2022-07-23T05:13:15;7.50;;;3.88;;
51792;SDS011;37850;53.178;6.376;2022-07-23T05:15:41;10.63;;;4.03;;
51792;SDS011;37850;53.178;6.376;2022-07-23T05:18:07;9.95;;;3.70;;
51792;SDS011;37850;53.178;6.376;2022-07-23T05:20:33;7.88;;;4.00;;
51792;SDS011;37850;53.178;6.376;2022-07-23T05:22:59;9.07;;;3.70;;
51792;SDS011;37850;53.178;6.376;2022-07-23T05:25:25;6.88;;;3.85;;
51792;SDS011;37850;53.178;6.376;2022-07-23T05:27:50;7.68;;;3.60;;
51792;SDS011;37850;53.178;6.376;2022-07-23T05:30:16;8.90;;;3.50;;
51792;SDS011;37850;53.178;6.376;2022-07-23T05:32:42;7.50;;;3.45;;
51792;SDS011;37850;53.178;6.376;2022-07-23T05:35:08;12.20;;;3.40;;
51792;SDS011;37850;53.178;6.376;2022-07-23T05:37:33;7.13;;;3.15;;
51792;SDS011;37850;53.178;6.376;2022-07-23T05:40:00;7.82;;;3.05;;
51792;SDS011;37850;53.178;6.376;2022-07-23T05:42:32;6.38;;;2.75;;
51792;SDS011;37850;53.178;6.376;2022-07-23T05:44:59;7.53;;;3.00;;
51792;SDS011;37850;53.178;6.376;2022-07-23T05:47:24;8.15;;;3.10;;
51792;SDS011;37850;53.178;6.376;2022-07-23T05:49:50;7.38;;;3.20;;
51792;SDS011;37850;53.178;6.376;2022-07-23T05:52:16;6.90;;;2.92;;
51792;SDS011;37850;53.178;6.376;2022-07-23T05:54:42;8.07;;;2.88;;
51792;SDS011;37850;53.178;6.376;2022-07-23T05:57:07;11.00;;;2.60;;
51792;SDS011;37850;53.178;6.376;2022-07-23T05:59:33;8.07;;;2.83;;
51792;SDS011;37850;53.178;6.376;2022-07-23T06:01:59;5.80;;;2.60;;
51792;SDS011;37850;53.178;6.376;2022-07-23T06:04:25;8.07;;;2.42;;
51792;SDS011;37850;53.178;6.376;2022-07-23T06:06:50;7.07;;;2.60;;
51792;SDS011;37850;53.178;6.376;2022-07-23T06:09:16;6.57;;;2.30;;
51792;SDS011;37850;53.178;6.376;2022-07-23T06:11:42;6.18;;;2.63;;
51792;SDS011;37850;53.178;6.376;2022-07-23T06:14:07;4.95;;;2.33;;
51792;SDS011;37850;53.178;6.376;2022-07-23T06:16:33;7.03;;;2.40;;
51792;SDS011;37850;53.178;6.376;2022-07-23T06:18:59;9.00;;;2.40;;
51792;SDS011;37850;53.178;6.376;2022-07-23T06:21:24;4.40;;;2.13;;
51792;SDS011;37850;53.178;6.376;2022-07-23T06:23:50;6.88;;;2.30;;
51792;SDS011;37850;53.178;6.376;2022-07-23T06:26:16;5.28;;;2.17;;
51792;SDS011;37850;53.178;6.376;2022-07-23T06:28:42;4.35;;;1.88;;
51792;SDS011;37850;53.178;6.376;2022-07-23T06:31:07;4.07;;;1.83;;
51792;SDS011;37850;53.178;6.376;2022-07-23T06:33:33;3.78;;;1.70;;
51792;SDS011;37850;53.178;6.376;2022-07-23T06:35:59;4.70;;;1.40;;
51792;SDS011;37850;53.178;6.376;2022-07-23T06:38:25;4.38;;;1.23;;
51792;SDS011;37850;53.178;6.376;2022-07-23T06:40:50;4.97;;;1.17;;
51792;SDS011;37850;53.178;6.376;2022-07-23T06:43:16;6.00;;;1.20;;
51792;SDS011;37850;53.178;6.376;2022-07-23T06:45:42;5.22;;;1.00;;
51792;SDS011;37850;53.178;6.376;2022-07-23T06:48:07;5.10;;;0.80;;
51792;SDS011;37850;53.178;6.376;2022-07-23T06:50:33;2.08;;;0.73;;
51792;SDS011;37850;53.178;6.376;2022-07-23T06:52:59;3.80;;;0.90;;
51792;SDS011;37850;53.178;6.376;2022-07-23T06:55:25;2.60;;;0.65;;
51792;SDS011;37850;53.178;6.376;2022-07-23T06:57:51;3.72;;;0.70;;
51792;SDS011;37850;53.178;6.376;2022-07-23T07:00:16;2.20;;;0.52;;
51792;SDS011;37850;53.178;6.376;2022-07-23T07:02:42;1.65;;;0.70;;
51792;SDS011;37850;53.178;6.376;2022-07-23T07:05:08;3.42;;;0.52;;
51792;SDS011;37850;53.178;6.376;2022-07-23T07:07:34;2.50;;;0.80;;
51792;SDS011;37850;53.178;6.376;2022-07-23T07:10:00;3.75;;;0.70;;
51792;SDS011;37850;53.178;6.376;2022-07-23T07:12:26;4.20;;;0.50;;
51792;SDS011;37850;53.178;6.376;2022-07-23T07:14:52;2.78;;;0.70;;
51792;SDS011;37850;53.178;6.376;2022-07-23T07:17:18;2.90;;;0.70;;
51792;SDS011;37850;53.178;6.376;2022-07-23T07:19:44;2.40;;;0.60;;
51792;SDS011;37850;53.178;6.376;2022-07-23T07:22:10;2.85;;;0.85;;
51792;SDS011;37850;53.178;6.376;2022-07-23T07:24:35;1.38;;;0.50;;
51792;SDS011;37850;53.178;6.376;2022-07-23T07:27:01;2.05;;;0.52;;
51792;SDS011;37850;53.178;6.376;2022-07-23T07:29:27;2.40;;;0.60;;
51792;SDS011;37850;53.178;6.376;2022-07-23T07:31:53;1.35;;;0.50;;
51792;SDS011;37850;53.178;6.376;2022-07-23T07:34:19;1.42;;;0.50;;
51792;SDS011;37850;53.178;6.376;2022-07-23T07:36:45;0.82;;;0.50;;
51792;SDS011;37850;53.178;6.376;2022-07-23T07:39:10;2.97;;;0.52;;
51792;SDS011;37850;53.178;6.376;2022-07-23T07:41:36;2.65;;;0.57;;
51792;SDS011;37850;53.178;6.376;2022-07-23T07:44:02;2.38;;;0.60;;
51792;SDS011;37850;53.178;6.376;2022-07-23T07:46:27;1.98;;;0.65;;
51792;SDS011;37850;53.178;6.376;2022-07-23T07:48:53;2.03;;;0.70;;
51792;SDS011;37850;53.178;6.376;2022-07-23T07:51:19;1.88;;;0.50;;
51792;SDS011;37850;53.178;6.376;2022-07-23T07:53:45;1.73;;;0.63;;
51792;SDS011;37850;53.178;6.376;2022-07-23T07:56:10;1.55;;;0.57;;
51792;SDS011;37850;53.178;6.376;2022-07-23T07:58:36;2.20;;;0.50;;
51792;SDS011;37850;53.178;6.376;2022-07-23T08:01:02;2.10;;;0.55;;
51792;SDS011;37850;53.178;6.376;2022-07-23T08:03:27;3.15;;;0.70;;
51792;SDS011;37850;53.178;6.376;2022-07-23T08:05:54;5.30;;;0.82;;
51792;SDS011;37850;53.178;6.376;2022-07-23T08:08:20;2.00;;;0.68;;
51792;SDS011;37850;53.178;6.376;2022-07-23T08:10:45;4.57;;;0.80;;
51792;SDS011;37850;53.178;6.376;2022-07-23T08:13:15;1.75;;;0.50;;
51792;SDS011;37850;53.178;6.376;2022-07-23T08:15:41;2.47;;;0.70;;
51792;SDS011;37850;53.178;6.376;2022-07-23T08:18:08;2.75;;;0.60;;
51792;SDS011;37850;53.178;6.376;2022-07-23T08:20:35;1.50;;;0.57;;
51792;SDS011;37850;53.178;6.376;2022-07-23T08:23:05;3.38;;;0.60;;
51792;SDS011;37850;53.178;6.376;2022-07-23T08:28:03;2.42;;;0.70;;
51792;SDS011;37850;53.178;6.376;2022-07-23T08:30:30;1.88;;;0.60;;
51792;SDS011;37850;53.178;6.376;2022-07-23T08:33:00;2.72;;;0.77;;
51792;SDS011;37850;53.178;6.376;2022-07-23T08:37:53;4.38;;;0.60;;
51792;SDS011;37850;53.178;6.376;2022-07-23T08:40:20;2.58;;;0.52;;
51792;SDS011;37850;53.178;6.376;2022-07-23T08:42:49;3.05;;;0.80;;
51792;SDS011;37850;53.178;6.376;2022-07-23T08:45:16;2.85;;;0.60;;
51792;SDS011;37850;53.178;6.376;2022-07-23T08:47:44;1.95;;;0.57;;
51792;SDS011;37850;53.178;6.376;2022-07-23T08:50:10;2.15;;;0.68;;
51792;SDS011;37850;53.178;6.376;2022-07-23T08:52:36;3.40;;;0.70;;
51792;SDS011;37850;53.178;6.376;2022-07-23T08:55:03;4.57;;;0.80;;
51792;SDS011;37850;53.178;6.376;2022-07-23T08:57:30;4.82;;;0.75;;
51792;SDS011;37850;53.178;6.376;2022-07-23T08:59:56;4.28;;;0.65;;
51792;SDS011;37850;53.178;6.376;2022-07-23T09:02:22;4.65;;;0.70;;
51792;SDS011;37850;53.178;6.376;2022-07-23T09:04:47;2.20;;;0.63;;
51792;SDS011;37850;53.178;6.376;2022-07-23T09:07:13;4.30;;;0.70;;
51792;SDS011;37850;53.178;6.376;2022-07-23T09:09:40;4.32;;;0.90;;
51792;SDS011;37850;53.178;6.376;2022-07-23T09:12:06;5.60;;;0.80;;
51792;SDS011;37850;53.178;6.376;2022-07-23T09:14:44;2.97;;;0.70;;
51792;SDS011;37850;53.178;6.376;2022-07-23T09:17:14;4.18;;;0.80;;
51792;SDS011;37850;53.178;6.376;2022-07-23T09:19:41;1.70;;;0.70;;
51792;SDS011;37850;53.178;6.376;2022-07-23T09:30:11;3.40;;;0.70;;
51792;SDS011;37850;53.178;6.376;2022-07-23T09:32:36;2.33;;;0.70;;
51792;SDS011;37850;53.178;6.376;2022-07-23T09:35:03;1.42;;;0.55;;
51792;SDS011;37850;53.178;6.376;2022-07-23T09:37:29;3.97;;;0.80;;
51792;SDS011;37850;53.178;6.376;2022-07-23T09:40:03;2.92;;;0.80;;
51792;SDS011;37850;53.178;6.376;2022-07-23T09:42:30;2.25;;;0.68;;
51792;SDS011;37850;53.178;6.376;2022-07-23T09:44:56;2.00;;;0.70;;
51792;SDS011;37850;53.178;6.376;2022-07-23T09:47:24;1.48;;;0.47;;
51792;SDS011;37850;53.178;6.376;2022-07-23T09:52:49;4.07;;;0.80;;
51792;SDS011;37850;53.178;6.376;2022-07-23T09:55:15;1.48;;;0.52;;
51792;SDS011;37850;53.178;6.376;2022-07-23T09:57:43;4.35;;;0.70;;
51792;SDS011;37850;53.178;6.376;2022-07-23T10:00:18;9.18;;;1.25;;
51792;SDS011;37850;53.178;6.376;2022-07-23T10:02:45;6.30;;;1.02;;
51792;SDS011;37850;53.178;6.376;2022-07-23T10:05:11;4.97;;;0.75;;
51792;SDS011;37850;53.178;6.376;2022-07-23T10:07:38;4.30;;;0.80;;
51792;SDS011;37850;53.178;6.376;2022-07-23T10:10:05;3.03;;;0.75;;
51792;SDS011;37850;53.178;6.376;2022-07-23T10:12:31;4.03;;;0.80;;
51792;SDS011;37850;53.178;6.376;2022-07-23T10:15:00;2.38;;;0.93;;
51792;SDS011;37850;53.178;6.376;2022-07-23T10:17:27;7.22;;;0.80;;
51792;SDS011;37850;53.178;6.376;2022-07-23T10:19:53;1.85;;;0.60;;
51792;SDS011;37850;53.178;6.376;2022-07-23T10:22:20;4.32;;;0.80;;
51792;SDS011;37850;53.178;6.376;2022-07-23T10:41:17;2.72;;;0.80;;
51792;SDS011;37850;53.178;6.376;2022-07-23T10:44:06;4.50;;;0.85;;
51792;SDS011;37850;53.178;6.376;2022-07-23T10:46:31;4.30;;;0.80;;
51792;SDS011;37850;53.178;6.376;2022-07-23T10:49:20;3.72;;;0.73;;
51792;SDS011;37850;53.178;6.376;2022-07-23T10:54:56;4.07;;;1.00;;
51792;SDS011;37850;53.178;6.376;2022-07-23T10:57:47;2.40;;;0.60;;
51792;SDS011;37850;53.178;6.376;2022-07-23T11:00:16;4.13;;;0.90;;
51792;SDS011;37850;53.178;6.376;2022-07-23T11:02:47;2.58;;;0.85;;
51792;SDS011;37850;53.178;6.376;2022-07-23T11:05:15;3.78;;;0.90;;
51792;SDS011;37850;53.178;6.376;2022-07-23T11:31:52;4.93;;;1.05;;
51792;SDS011;37850;53.178;6.376;2022-07-23T11:34:34;4.72;;;1.00;;
51792;SDS011;37850;53.178;6.376;2022-07-23T11:37:09;4.07;;;1.23;;
51792;SDS011;37850;53.178;6.376;2022-07-23T11:39:36;3.17;;;1.02;;
51792;SDS011;37850;53.178;6.376;2022-07-23T11:42:03;6.28;;;1.15;;
51792;SDS011;37850;53.178;6.376;2022-07-23T11:44:36;4.38;;;1.13;;
51792;SDS011;37850;53.178;6.376;2022-07-23T11:47:08;5.18;;;1.10;;
51792;SDS011;37850;53.178;6.376;2022-07-23T11:49:35;4.10;;;1.30;;
51792;SDS011;37850;53.178;6.376;2022-07-23T11:52:13;4.28;;;0.90;;
51792;SDS011;37850;53.178;6.376;2022-07-23T11:54:47;5.50;;;1.10;;
51792;SDS011;37850;53.178;6.376;2022-07-23T11:57:15;4.95;;;1.20;;
51792;SDS011;37850;53.178;6.376;2022-07-23T11:59:41;2.63;;;0.98;;
51792;SDS011;37850;53.178;6.376;2022-07-23T12:02:08;3.55;;;1.00;;
51792;SDS011;37850;53.178;6.376;2022-07-23T12:04:40;3.33;;;0.70;;
51792;SDS011;37850;53.178;6.376;2022-07-23T12:12:54;4.57;;;1.10;;
51792;SDS011;37850;53.178;6.376;2022-07-23T12:15:21;5.45;;;1.20;;
51792;SDS011;37850;53.178;6.376;2022-07-23T12:17:55;4.03;;;1.13;;
51792;SDS011;37850;53.178;6.376;2022-07-23T12:20:22;3.83;;;1.40;;
51792;SDS011;37850;53.178;6.376;2022-07-23T12:22:51;3.58;;;1.20;;
51792;SDS011;37850;53.178;6.376;2022-07-23T12:25:19;4.50;;;1.40;;
51792;SDS011;37850;53.178;6.376;2022-07-23T12:27:56;3.83;;;1.00;;
51792;SDS011;37850;53.178;6.376;2022-07-23T12:30:25;3.33;;;0.90;;
51792;SDS011;37850;53.178;6.376;2022-07-23T12:32:53;4.97;;;1.10;;
51792;SDS011;37850;53.178;6.376;2022-07-23T12:35:20;3.95;;;1.00;;
51792;SDS011;37850;53.178;6.376;2022-07-23T12:37:48;2.85;;;1.05;;
51792;SDS011;37850;53.178;6.376;2022-07-23T12:42:49;3.97;;;1.02;;
51792;SDS011;37850;53.178;6.376;2022-07-23T12:45:41;3.35;;;0.85;;
51792;SDS011;37850;53.178;6.376;2022-07-23T12:48:15;4.28;;;1.05;;
51792;SDS011;37850;53.178;6.376;2022-07-23T12:50:48;2.20;;;0.80;;
51792;SDS011;37850;53.178;6.376;2022-07-23T12:53:26;2.33;;;0.80;;
51792;SDS011;37850;53.178;6.376;2022-07-23T12:56:27;3.40;;;0.90;;
51792;SDS011;37850;53.178;6.376;2022-07-23T13:06:34;3.80;;;1.20;;
51792;SDS011;37850;53.178;6.376;2022-07-23T13:09:13;3.00;;;0.98;;
51792;SDS011;37850;53.178;6.376;2022-07-23T13:11:41;3.58;;;1.10;;
51792;SDS011;37850;53.178;6.376;2022-07-23T13:14:08;5.65;;;1.17;;
51792;SDS011;37850;53.178;6.376;2022-07-23T13:16:34;4.28;;;0.93;;
51792;SDS011;37850;53.178;6.376;2022-07-23T13:19:00;2.33;;;0.90;;
51792;SDS011;37850;53.178;6.376;2022-07-23T13:21:26;2.40;;;1.00;;
51792;SDS011;37850;53.178;6.376;2022-07-23T13:23:53;2.45;;;0.85;;
51792;SDS011;37850;53.178;6.376;2022-07-23T13:26:20;3.67;;;1.00;;
51792;SDS011;37850;53.178;6.376;2022-07-23T13:28:45;4.70;;;1.00;;
51792;SDS011;37850;53.178;6.376;2022-07-23T13:31:11;1.73;;;0.80;;
51792;SDS011;37850;53.178;6.376;2022-07-23T13:33:38;4.70;;;1.08;;
51792;SDS011;37850;53.178;6.376;2022-07-23T13:36:04;4.93;;;1.10;;
51792;SDS011;37850;53.178;6.376;2022-07-23T13:38:30;6.22;;;1.10;;
51792;SDS011;37850;53.178;6.376;2022-07-23T13:40:56;6.45;;;1.02;;
51792;SDS011;37850;53.178;6.376;2022-07-23T13:43:22;3.15;;;1.02;;
51792;SDS011;37850;53.178;6.376;2022-07-23T13:45:49;4.25;;;1.23;;
51792;SDS011;37850;53.178;6.376;2022-07-23T13:48:15;2.85;;;0.98;;
51792;SDS011;37850;53.178;6.376;2022-07-23T13:50:42;2.55;;;0.90;;
51792;SDS011;37850;53.178;6.376;2022-07-23T13:53:09;2.60;;;1.08;;
51792;SDS011;37850;53.178;6.376;2022-07-23T13:55:38;2.88;;;0.88;;
51792;SDS011;37850;53.178;6.376;2022-07-23T13:58:05;3.92;;;0.90;;
51792;SDS011;37850;53.178;6.376;2022-07-23T14:00:32;3.08;;;0.90;;
51792;SDS011;37850;53.178;6.376;2022-07-23T14:02:59;3.95;;;0.98;;
51792;SDS011;37850;53.178;6.376;2022-07-23T14:05:25;2.38;;;0.80;;
51792;SDS011;37850;53.178;6.376;2022-07-23T14:07:52;9.18;;;1.38;;
51792;SDS011;37850;53.178;6.376;2022-07-23T14:10:18;3.55;;;1.00;;
51792;SDS011;37850;53.178;6.376;2022-07-23T14:12:46;5.47;;;0.90;;
51792;SDS011;37850;53.178;6.376;2022-07-23T14:15:13;2.97;;;0.80;;
51792;SDS011;37850;53.178;6.376;2022-07-23T14:17:40;4.30;;;0.90;;
51792;SDS011;37850;53.178;6.376;2022-07-23T14:20:08;5.68;;;1.10;;
51792;SDS011;37850;53.178;6.376;2022-07-23T14:22:34;5.18;;;1.00;;
51792;SDS011;37850;53.178;6.376;2022-07-23T14:25:01;1.92;;;0.70;;
51792;SDS011;37850;53.178;6.376;2022-07-23T14:27:27;3.35;;;1.02;;
51792;SDS011;37850;53.178;6.376;2022-07-23T14:29:53;3.63;;;0.80;;
51792;SDS011;37850;53.178;6.376;2022-07-23T14:32:20;3.50;;;0.90;;
51792;SDS011;37850;53.178;6.376;2022-07-23T14:34:46;2.50;;;0.85;;
51792;SDS011;37850;53.178;6.376;2022-07-23T14:37:12;2.92;;;0.80;;
51792;SDS011;37850;53.178;6.376;2022-07-23T14:39:38;1.83;;;0.85;;
51792;SDS011;37850;53.178;6.376;2022-07-23T14:42:05;2.35;;;0.90;;
51792;SDS011;37850;53.178;6.376;2022-07-23T14:44:32;2.65;;;0.90;;
51792;SDS011;37850;53.178;6.376;2022-07-23T14:46:57;2.55;;;0.93;;
51792;SDS011;37850;53.178;6.376;2022-07-23T14:49:25;2.30;;;1.08;;
51792;SDS011;37850;53.178;6.376;2022-07-23T14:51:51;3.38;;;0.82;;
51792;SDS011;37850;53.178;6.376;2022-07-23T14:54:16;2.08;;;0.90;;
51792;SDS011;37850;53.178;6.376;2022-07-23T14:56:45;2.88;;;1.00;;
51792;SDS011;37850;53.178;6.376;2022-07-23T14:59:11;3.45;;;1.00;;
51792;SDS011;37850;53.178;6.376;2022-07-23T15:01:37;3.70;;;1.27;;
51792;SDS011;37850;53.178;6.376;2022-07-23T15:04:06;2.13;;;0.80;;
51792;SDS011;37850;53.178;6.376;2022-07-23T15:06:32;3.88;;;1.10;;
51792;SDS011;37850;53.178;6.376;2022-07-23T15:08:58;3.65;;;1.10;;
51792;SDS011;37850;53.178;6.376;2022-07-23T15:11:25;4.28;;;1.02;;
51792;SDS011;37850;53.178;6.376;2022-07-23T15:13:54;2.25;;;0.90;;
51792;SDS011;37850;53.178;6.376;2022-07-23T15:16:20;4.72;;;0.95;;
51792;SDS011;37850;53.178;6.376;2022-07-23T15:18:45;4.07;;;0.93;;
51792;SDS011;37850;53.178;6.376;2022-07-23T15:21:11;2.28;;;0.90;;
51792;SDS011;37850;53.178;6.376;2022-07-23T15:23:38;2.53;;;1.00;;
51792;SDS011;37850;53.178;6.376;2022-07-23T15:26:05;1.92;;;0.90;;
51792;SDS011;37850;53.178;6.376;2022-07-23T15:28:32;5.50;;;0.93;;
51792;SDS011;37850;53.178;6.376;2022-07-23T15:30:58;2.50;;;0.90;;
51792;SDS011;37850;53.178;6.376;2022-07-23T15:33:24;2.90;;;0.95;;
51792;SDS011;37850;53.178;6.376;2022-07-23T15:35:49;3.88;;;1.13;;
51792;SDS011;37850;53.178;6.376;2022-07-23T15:38:18;2.45;;;0.93;;
51792;SDS011;37850;53.178;6.376;2022-07-23T15:40:43;2.38;;;1.00;;
51792;SDS011;37850;53.178;6.376;2022-07-23T15:43:09;2.90;;;1.10;;
51792;SDS011;37850;53.178;6.376;2022-07-23T15:45:35;3.63;;;1.23;;
51792;SDS011;37850;53.178;6.376;2022-07-23T15:48:01;7.45;;;1.20;;
51792;SDS011;37850;53.178;6.376;2022-07-23T15:50:27;3.53;;;0.98;;
51792;SDS011;37850;53.178;6.376;2022-07-23T15:52:53;4.40;;;1.17;;
51792;SDS011;37850;53.178;6.376;2022-07-23T15:55:18;2.53;;;0.90;;
51792;SDS011;37850;53.178;6.376;2022-07-23T15:57:44;4.88;;;1.30;;
51792;SDS011;37850;53.178;6.376;2022-07-23T16:00:10;4.47;;;1.10;;